首页
METAR-TAF:

METAR-TAF

机场 :

韋拉克魯斯州, 墨西哥

纬度: 19-09N, 经度: 096-11W, 海拔: 32米

当前天气观测

该预报发布于1小时和4分钟前的22:49 UTC
风速3节,风向
温度 27°C
湿度 70%
气压 1009 hPa
能見度: 11.3公里
天空无云

METAR: MMVR 092249Z 10003KT 7SM SKC 27/21 A2980 RMK HZY ISOL CU FU ARND

时间: 17:53 (23:53 UTC)

预报

该预报发布于6小时和36分钟前的17:17 UTC
预报有效从09日的 18点(UTC)到 10日的 18点(UTC)
风速5节,风向
能見度: 8.0公里
天空无云
成为
从 09日的 20点(UTC)到 09日的 21点(UTC)
风速12节,风向南转南东
散云层高于1500英尺
从 10日的 0200点(UTC)
风速5节,风向南转南东
能見度: 9.7公里
散云层高于1500英尺
从 10日的 0600点(UTC)
风速5节,风向
能見度: 4.8公里
多云层高于1000英尺
轻雾, 霾
成为
从 10日的 09点(UTC)到 10日的 10点(UTC)
能見度: 0.8公里
层高于200英尺
从 10日的 1600点(UTC)
风速节,风向
能見度: 6.4公里
散云层高于1500英尺

TAF: MMVR 091717Z 0918/1018 17005KT 5SM HZ SKC TX30/0922Z TN18/1013Z BECMG 0920/0921 15012KT SCT015 FM100200 16005KT 6SM HZ SCT015 FM100600 18005KT 3SM BR HZ BKN010 BECMG 1009/1010 1/2SM FG VV002 FM101600 00000KT 4SM HZ SCT015

超过4000个机场的气象观测和天气预报(METAR&TAF报告)。

可查询的气象台以黄色和红色小点在地图上表示。

将鼠标移到小点上方,可查看气象台名称。

然后点击查看天气观测和预报。

如需切换地图:点击带黑十字的绿色按钮放大地图;点击带横线的绿色按钮缩小地图;或者点击绿色箭头查看邻近地区的地图。


METAR-TAF: